Time;durP1;ratioP1;P1;durP2;ratioP2;P2;SDS_P1;SDS_P2;PMS_P1;PMS_P2;Temp;Humidity;BMP_temperature;BMP_pressure;BME280_temperature;BME280_humidity;BME280_pressure;Samples;Min_cycle;Max_cycle;Signal;HPM_P1;HPM_P2
2023/06/07 00:00:33;;;;;;;0.67;0.67;;;;;;;;;;6263123;28;20036;-72
2023/06/07 00:03:34;;;;;;;0.52;0.52;;;;;;;;;;6261276;28;20036;-72
2023/06/07 00:06:34;;;;;;;0.95;0.85;;;;;;;;;;6262802;28;20025;-71
2023/06/07 00:09:35;;;;;;;0.60;0.60;;;;;;;;;;6259869;28;21102;-71
2023/06/07 00:12:35;;;;;;;0.70;0.70;;;;;;;;;;6261966;28;20029;-72
2023/06/07 00:15:35;;;;;;;1.00;0.93;;;;;;;;;;6264507;28;20449;-71
2023/06/07 00:18:36;;;;;;;0.80;0.80;;;;;;;;;;6261244;28;20044;-71
2023/06/07 00:21:36;;;;;;;0.80;0.80;;;;;;;;;;6264602;28;20024;-71
2023/06/07 00:24:36;;;;;;;0.77;0.77;;;;;;;;;;6259176;28;20078;-72
2023/06/07 00:27:36;;;;;;;0.70;0.70;;;;;;;;;;6263620;28;20021;-72
2023/06/07 00:30:37;;;;;;;1.00;0.80;;;;;;;;;;6263950;28;20024;-71
2023/06/07 00:33:37;;;;;;;0.67;0.67;;;;;;;;;;6263336;28;20754;-71
2023/06/07 00:36:37;;;;;;;1.47;0.60;;;;;;;;;;6261637;28;20783;-71
2023/06/07 00:39:38;;;;;;;0.60;0.60;;;;;;;;;;6261819;28;20095;-72
2023/06/07 00:42:38;;;;;;;0.60;0.60;;;;;;;;;;6261365;28;20482;-72
2023/06/07 00:45:38;;;;;;;0.60;0.60;;;;;;;;;;6262535;28;20032;-71
2023/06/07 00:48:39;;;;;;;0.50;0.50;;;;;;;;;;6261191;28;20100;-70
2023/06/07 00:51:39;;;;;;;2.30;0.60;;;;;;;;;;6264049;28;20021;-70
2023/06/07 00:54:39;;;;;;;0.50;0.50;;;;;;;;;;6263162;28;20021;-71
2023/06/07 00:57:40;;;;;;;0.60;0.60;;;;;;;;;;6256094;28;20066;-71
2023/06/07 01:00:41;;;;;;;0.57;0.57;;;;;;;;;;6263148;28;20362;-73
2023/06/07 01:03:41;;;;;;;0.57;0.57;;;;;;;;;;6262761;28;20028;-72
2023/06/07 01:06:42;;;;;;;0.50;0.50;;;;;;;;;;6260662;28;20138;-71
2023/06/07 01:09:42;;;;;;;0.50;0.50;;;;;;;;;;6263330;28;20013;-70
2023/06/07 01:12:47;;;;;;;0.73;0.67;;;;;;;;;;6265042;28;20025;-70
2023/06/07 01:15:48;;;;;;;0.73;0.73;;;;;;;;;;6259110;28;20267;-71
2023/06/07 01:18:49;;;;;;;0.55;0.55;;;;;;;;;;6258924;28;20021;-71
2023/06/07 01:21:52;;;;;;;;;;;;;;;;;;6260042;28;20109;-70
2023/06/07 01:24:55;;;;;;;0.47;0.47;;;;;;;;;;6262117;28;19908;-70
2023/06/07 01:27:57;;;;;;;0.50;0.50;;;;;;;;;;6260621;28;20423;-70
2023/06/07 01:30:57;;;;;;;;;;;;;;;;;;6260198;28;20119;-70
2023/06/07 01:33:57;;;;;;;1.02;0.38;;;;;;;;;;6262299;28;20003;-69
2023/06/07 01:36:59;;;;;;;0.60;0.60;;;;;;;;;;6262677;28;20024;-71
2023/06/07 01:39:59;;;;;;;;;;;;;;;;;;6260858;28;20452;-73
2023/06/07 01:42:59;;;;;;;0.60;0.60;;;;;;;;;;6261750;28;20002;-71
2023/06/07 01:46:00;;;;;;;0.57;0.57;;;;;;;;;;6258566;28;20040;-70
2023/06/07 01:49:01;;;;;;;0.57;0.57;;;;;;;;;;6262588;28;20676;-71
2023/06/07 01:52:01;;;;;;;0.88;0.80;;;;;;;;;;6258361;28;20033;-73
2023/06/07 01:55:03;;;;;;;1.37;0.80;;;;;;;;;;6261251;28;20461;-71
2023/06/07 01:58:10;;;;;;;0.50;0.50;;;;;;;;;;6256969;28;20087;-72
2023/06/07 02:01:21;;;;;;;1.10;1.00;;;;;;;;;;6256304;28;20032;-72
2023/06/07 02:04:24;;;;;;;0.70;0.65;;;;;;;;;;6259175;28;20397;-70
2023/06/07 02:07:27;;;;;;;0.80;0.80;;;;;;;;;;6253708;28;20021;-71
2023/06/07 02:10:28;;;;;;;0.65;0.65;;;;;;;;;;6245433;28;20037;-71
2023/06/07 02:13:31;;;;;;;0.70;0.70;;;;;;;;;;6264108;28;20436;-75
2023/06/07 02:16:32;;;;;;;1.05;0.90;;;;;;;;;;6256230;28;20424;-72
2023/06/07 02:19:33;;;;;;;0.73;0.73;;;;;;;;;;6266601;28;20025;-72
2023/06/07 02:22:33;;;;;;;0.75;0.75;;;;;;;;;;6270573;28;20044;-71
2023/06/07 02:25:34;;;;;;;0.80;0.80;;;;;;;;;;6262313;28;20033;-72
2023/06/07 02:28:34;;;;;;;0.80;0.80;;;;;;;;;;6265274;28;20477;-71
2023/06/07 02:31:35;;;;;;;0.90;0.90;;;;;;;;;;6265683;28;20132;-71
2023/06/07 02:34:36;;;;;;;0.80;0.80;;;;;;;;;;6266369;28;20073;-71
2023/06/07 02:37:36;;;;;;;0.70;0.70;;;;;;;;;;6271056;28;20055;-71
2023/06/07 02:40:36;;;;;;;0.70;0.70;;;;;;;;;;6268907;28;20488;-71
2023/06/07 02:43:36;;;;;;;0.70;0.70;;;;;;;;;;6265268;28;20385;-71
2023/06/07 02:46:37;;;;;;;0.80;0.80;;;;;;;;;;6266588;28;20017;-70
2023/06/07 02:49:37;;;;;;;1.00;0.80;;;;;;;;;;6259704;28;20264;-70
2023/06/07 02:52:37;;;;;;;0.97;0.90;;;;;;;;;;6265411;28;20046;-71
2023/06/07 02:55:38;;;;;;;0.93;0.70;;;;;;;;;;6267085;28;20028;-71
2023/06/07 02:58:38;;;;;;;0.77;0.77;;;;;;;;;;6258703;28;20036;-71
2023/06/07 03:01:39;;;;;;;0.80;0.80;;;;;;;;;;6266572;28;20016;-69
2023/06/07 03:04:40;;;;;;;0.80;0.80;;;;;;;;;;6264999;28;20024;-72
2023/06/07 03:07:40;;;;;;;0.80;0.80;;;;;;;;;;6266358;28;20394;-71
2023/06/07 03:10:41;;;;;;;0.90;0.70;;;;;;;;;;6266569;28;20021;-71
2023/06/07 03:13:41;;;;;;;0.90;0.90;;;;;;;;;;6266417;28;20029;-71
2023/06/07 03:16:44;;;;;;;1.07;0.80;;;;;;;;;;6274673;28;20080;-72
2023/06/07 03:19:45;;;;;;;1.23;0.85;;;;;;;;;;6268188;28;20021;-73
2023/06/07 03:22:45;;;;;;;1.00;1.00;;;;;;;;;;6266069;28;20036;-72
2023/06/07 03:25:45;;;;;;;0.70;0.70;;;;;;;;;;6261577;28;20540;-72
2023/06/07 03:28:46;;;;;;;1.10;1.00;;;;;;;;;;6259809;28;20471;-73
2023/06/07 03:31:46;;;;;;;1.53;1.10;;;;;;;;;;6262819;28;20025;-71
2023/06/07 03:34:46;;;;;;;1.20;1.10;;;;;;;;;;6264467;28;20027;-71
2023/06/07 03:37:46;;;;;;;1.07;0.97;;;;;;;;;;6265194;28;20021;-71
2023/06/07 03:40:47;;;;;;;1.40;1.20;;;;;;;;;;6265662;28;20028;-72
2023/06/07 03:43:47;;;;;;;1.00;1.00;;;;;;;;;;6264060;28;20078;-72
2023/06/07 03:46:48;;;;;;;1.03;0.97;;;;;;;;;;6264458;28;20308;-72
2023/06/07 03:49:48;;;;;;;1.15;1.02;;;;;;;;;;6268985;28;20029;-71
2023/06/07 03:52:48;;;;;;;0.93;0.87;;;;;;;;;;6268604;28;20757;-71
2023/06/07 03:55:49;;;;;;;1.10;1.00;;;;;;;;;;6269254;28;20021;-71
2023/06/07 03:58:49;;;;;;;1.10;1.00;;;;;;;;;;6270676;28;20097;-72
2023/06/07 04:01:49;;;;;;;0.90;0.90;;;;;;;;;;6265975;28;20036;-71
2023/06/07 04:04:52;;;;;;;0.93;0.93;;;;;;;;;;6270089;28;20447;-70
2023/06/07 04:07:53;;;;;;;1.35;1.25;;;;;;;;;;6269197;28;20021;-71
2023/06/07 04:10:53;;;;;;;1.30;1.20;;;;;;;;;;6267664;28;20063;-77
2023/06/07 04:13:54;;;;;;;1.15;1.02;;;;;;;;;;6257543;28;20025;-72
2023/06/07 04:16:54;;;;;;;1.20;1.10;;;;;;;;;;6253503;28;20017;-72
2023/06/07 04:19:56;;;;;;;1.30;1.20;;;;;;;;;;6270800;28;20280;-72
2023/06/07 04:22:56;;;;;;;0.90;0.90;;;;;;;;;;6269698;28;20421;-72
2023/06/07 04:25:58;;;;;;;1.27;1.17;;;;;;;;;;6262245;28;20027;-72
2023/06/07 04:28:58;;;;;;;1.20;0.98;;;;;;;;;;6260394;28;20080;-72
2023/06/07 04:32:01;;;;;;;1.10;1.07;;;;;;;;;;6253481;28;20106;-72
2023/06/07 04:35:02;;;;;;;1.08;1.00;;;;;;;;;;6251919;28;20025;-73
2023/06/07 04:38:02;;;;;;;1.00;0.98;;;;;;;;;;6255995;28;20024;-72
2023/06/07 04:41:05;;;;;;;0.87;0.87;;;;;;;;;;6266526;28;20473;-72
2023/06/07 04:44:07;;;;;;;1.17;1.08;;;;;;;;;;6266107;28;20104;-73
2023/06/07 04:47:08;;;;;;;;;;;;;;;;;;6255801;28;20481;-72
2023/06/07 04:50:08;;;;;;;;;;;;;;;;;;6253606;28;19920;-71
2023/06/07 04:53:10;;;;;;;1.07;0.87;;;;;;;;;;6249555;28;19908;-71
2023/06/07 04:56:11;;;;;;;1.00;1.00;;;;;;;;;;6256948;28;20090;-71
2023/06/07 04:59:11;;;;;;;1.10;1.00;;;;;;;;;;6254197;28;20036;-71
2023/06/07 05:02:12;;;;;;;0.90;0.90;;;;;;;;;;6254738;28;20662;-72
2023/06/07 05:05:13;;;;;;;0.93;0.83;;;;;;;;;;6261685;28;20331;-71
2023/06/07 05:08:14;;;;;;;1.08;1.00;;;;;;;;;;6252462;28;20107;-71
2023/06/07 05:11:14;;;;;;;;;;;;;;;;;;6258716;28;20024;-71
2023/06/07 05:14:15;;;;;;;0.60;0.60;;;;;;;;;;6255269;28;19909;-71
2023/06/07 05:17:19;;;;;;;0.90;0.90;;;;;;;;;;6265399;28;20021;-70
2023/06/07 05:20:20;;;;;;;1.13;1.02;;;;;;;;;;6255707;28;20039;-70
2023/06/07 05:23:21;;;;;;;1.20;1.10;;;;;;;;;;6267979;28;20021;-74
2023/06/07 05:26:22;;;;;;;1.10;1.00;;;;;;;;;;6260213;28;20547;-77
2023/06/07 05:29:22;;;;;;;;;;;;;;;;;;6260479;28;20329;-73
2023/06/07 05:32:22;;;;;;;1.00;0.90;;;;;;;;;;6251301;28;22632;-72
2023/06/07 05:35:22;;;;;;;0.87;0.80;;;;;;;;;;6253894;28;20027;-72
2023/06/07 05:38:23;;;;;;;1.17;1.07;;;;;;;;;;6252014;28;20170;-72
2023/06/07 05:41:23;;;;;;;0.90;0.90;;;;;;;;;;6255367;28;20279;-72
2023/06/07 05:44:23;;;;;;;1.10;1.00;;;;;;;;;;6264381;28;20346;-71
2023/06/07 05:47:25;;;;;;;1.17;1.07;;;;;;;;;;6273287;28;20013;-71
2023/06/07 05:50:25;;;;;;;1.23;1.10;;;;;;;;;;6267709;28;20073;-71
2023/06/07 05:53:26;;;;;;;1.07;1.07;;;;;;;;;;6268070;28;20068;-71
2023/06/07 05:56:27;;;;;;;1.60;1.20;;;;;;;;;;6264462;28;20295;-70
2023/06/07 05:59:28;;;;;;;1.23;1.13;;;;;;;;;;6267456;28;20031;-71
2023/06/07 06:02:28;;;;;;;1.10;1.10;;;;;;;;;;6264533;28;20029;-71
2023/06/07 06:05:29;;;;;;;1.10;1.00;;;;;;;;;;6256108;28;20021;-70
2023/06/07 06:08:29;;;;;;;1.30;1.20;;;;;;;;;;6266188;28;20497;-69
2023/06/07 06:11:29;;;;;;;1.13;1.03;;;;;;;;;;6269976;28;20175;-71
2023/06/07 06:14:29;;;;;;;1.60;1.47;;;;;;;;;;6267333;28;20032;-70
2023/06/07 06:17:30;;;;;;;1.30;1.20;;;;;;;;;;6275308;28;20049;-71
2023/06/07 06:20:33;;;;;;;;;;;;;;;;;;6271120;28;20062;-71
2023/06/07 06:23:35;;;;;;;1.77;1.10;;;;;;;;;;6263527;28;20269;-70
2023/06/07 06:26:35;;;;;;;1.08;1.08;;;;;;;;;;6267542;28;20099;-71
2023/06/07 06:29:35;;;;;;;1.37;1.27;;;;;;;;;;6266780;28;20036;-71
2023/06/07 06:32:35;;;;;;;1.40;1.30;;;;;;;;;;6270092;28;20127;-73
2023/06/07 06:35:36;;;;;;;1.37;1.27;;;;;;;;;;6267462;28;20401;-72
2023/06/07 06:38:37;;;;;;;;;;;;;;;;;;6241490;28;20056;-71
2023/06/07 06:41:37;;;;;;;1.50;1.40;;;;;;;;;;6267909;28;19939;-72
2023/06/07 06:44:37;;;;;;;1.75;1.50;;;;;;;;;;6283286;28;20031;-71
2023/06/07 06:47:41;;;;;;;;;;;;;;;;;;6278816;28;20024;-71
2023/06/07 06:50:43;;;;;;;1.45;1.35;;;;;;;;;;6290602;28;19908;-72
2023/06/07 06:53:43;;;;;;;1.88;1.77;;;;;;;;;;6272244;28;20028;-71
2023/06/07 06:56:44;;;;;;;1.73;1.63;;;;;;;;;;6275237;28;20037;-71
2023/06/07 06:59:44;;;;;;;;;;;;;;;;;;6273550;28;20474;-70
2023/06/07 07:02:44;;;;;;;2.00;1.50;;;;;;;;;;6276164;28;19909;-72
2023/06/07 07:05:44;;;;;;;;;;;;;;;;;;6276103;28;20024;-71
2023/06/07 07:08:45;;;;;;;1.45;1.35;;;;;;;;;;6275360;28;20054;-72
2023/06/07 07:11:45;;;;;;;;;;;;;;;;;;6277687;28;20413;-71
2023/06/07 07:14:45;;;;;;;1.95;1.60;;;;;;;;;;6275361;28;19912;-73
2023/06/07 07:17:49;;;;;;;;;;;;;;;;;;6274422;28;20103;-72
2023/06/07 07:20:49;;;;;;;1.65;1.55;;;;;;;;;;6274264;28;19920;-71
2023/06/07 07:23:49;;;;;;;;;;;;;;;;;;6277917;28;20051;-74
2023/06/07 07:26:50;;;;;;;1.70;1.60;;;;;;;;;;6279388;28;20296;-72
2023/06/07 07:29:50;;;;;;;;;;;;;;;;;;6282139;28;20751;-68
2023/06/07 07:32:50;;;;;;;1.85;1.75;;;;;;;;;;6276615;28;20045;-69
2023/06/07 07:35:51;;;;;;;;;;;;;;;;;;6277613;28;20017;-68
2023/06/07 07:38:52;;;;;;;1.70;1.60;;;;;;;;;;6278699;28;19989;-65
2023/06/07 07:41:52;;;;;;;2.00;1.90;;;;;;;;;;6271564;28;20030;-68
2023/06/07 07:44:52;;;;;;;;;;;;;;;;;;6278009;28;20519;-68
2023/06/07 07:47:52;;;;;;;1.63;1.52;;;;;;;;;;6278464;28;19946;-70
2023/06/07 07:50:53;;;;;;;;;;;;;;;;;;6274744;28;20028;-70
2023/06/07 07:53:53;;;;;;;1.67;1.58;;;;;;;;;;6277830;28;19995;-68
2023/06/07 07:56:53;;;;;;;1.85;1.75;;;;;;;;;;6274826;28;20489;-68
2023/06/07 07:59:53;;;;;;;;;;;;;;;;;;6279842;28;20119;-68
2023/06/07 08:02:53;;;;;;;1.95;1.63;;;;;;;;;;6279815;28;19931;-73
2023/06/07 08:05:54;;;;;;;;;;;;;;;;;;6279545;28;20477;-74
2023/06/07 08:08:55;;;;;;;1.77;1.67;;;;;;;;;;6276161;28;20994;-73
2023/06/07 08:11:55;;;;;;;;;;;;;;;;;;6276624;28;20327;-72
2023/06/07 08:14:55;;;;;;;1.70;1.60;;;;;;;;;;6275609;28;20344;-70
2023/06/07 08:17:55;;;;;;;;;;;;;;;;;;6280864;28;20048;-73
2023/06/07 08:20:55;;;;;;;2.08;1.88;;;;;;;;;;6269788;28;22513;-71
2023/06/07 08:23:55;;;;;;;;;;;;;;;;;;6277716;28;20078;-72
2023/06/07 08:26:56;;;;;;;1.43;1.33;;;;;;;;;;6275736;28;19912;-71
2023/06/07 08:29:56;;;;;;;2.10;1.67;;;;;;;;;;6277607;28;20024;-74
2023/06/07 08:32:56;;;;;;;2.13;2.03;;;;;;;;;;6277873;28;20028;-73
2023/06/07 08:35:57;;;;;;;2.45;2.25;;;;;;;;;;6269683;28;21064;-77
2023/06/07 08:38:57;;;;;;;2.00;1.80;;;;;;;;;;6275537;28;20020;-76
2023/06/07 08:41:57;;;;;;;2.27;2.07;;;;;;;;;;6276919;28;20297;-74
2023/06/07 08:44:57;;;;;;;2.13;2.03;;;;;;;;;;6273918;28;20286;-73
2023/06/07 08:47:58;;;;;;;2.30;2.10;;;;;;;;;;6274955;28;20274;-75
2023/06/07 08:51:01;;;;;;;2.60;2.40;;;;;;;;;;6281398;28;20279;-77
2023/06/07 08:54:02;;;;;;;2.38;2.20;;;;;;;;;;6278777;28;20017;-71
2023/06/07 08:57:03;;;;;;;2.58;2.38;;;;;;;;;;6274348;28;20054;-73
2023/06/07 09:00:06;;;;;;;2.50;2.30;;;;;;;;;;6284137;28;20041;-78
2023/06/07 09:03:07;;;;;;;2.40;2.20;;;;;;;;;;6287599;28;20028;-71
2023/06/07 09:06:08;;;;;;;3.28;2.97;;;;;;;;;;6283219;28;20361;-72
2023/06/07 09:09:08;;;;;;;3.22;3.03;;;;;;;;;;6284284;28;20050;-73
2023/06/07 09:12:08;;;;;;;3.70;3.23;;;;;;;;;;6292069;28;20076;-73
2023/06/07 09:15:09;;;;;;;3.65;3.35;;;;;;;;;;6291937;28;20085;-69
2023/06/07 09:18:10;;;;;;;3.47;3.17;;;;;;;;;;6285490;28;20037;-72
2023/06/07 09:21:20;;;;;;;3.17;2.97;;;;;;;;;;6287057;28;20108;-74
2023/06/07 09:24:25;;;;;;;3.17;2.97;;;;;;;;;;6278822;28;20027;-72
2023/06/07 09:27:29;;;;;;;3.35;3.05;;;;;;;;;;6286008;28;20024;-72
2023/06/07 09:30:30;;;;;;;3.15;2.85;;;;;;;;;;6291076;28;20040;-73
2023/06/07 09:33:33;;;;;;;3.53;3.22;;;;;;;;;;6288789;28;20040;-72
2023/06/07 09:36:33;;;;;;;3.30;3.00;;;;;;;;;;6289626;28;20089;-71
2023/06/07 09:39:37;;;;;;;3.50;3.20;;;;;;;;;;6285466;28;20032;-73
2023/06/07 09:42:38;;;;;;;3.25;2.92;;;;;;;;;;6292429;28;20020;-73
2023/06/07 09:45:38;;;;;;;3.25;2.95;;;;;;;;;;6288201;28;20032;-73
2023/06/07 09:48:45;;;;;;;3.88;3.58;;;;;;;;;;6282872;28;20028;-73
2023/06/07 09:51:45;;;;;;;3.45;3.20;;;;;;;;;;6278687;28;20510;-73
2023/06/07 09:54:46;;;;;;;3.95;3.65;;;;;;;;;;6283260;28;20024;-77
2023/06/07 09:57:46;;;;;;;4.28;3.95;;;;;;;;;;6290603;28;20525;-75
2023/06/07 10:00:47;;;;;;;4.47;4.07;;;;;;;;;;6289467;28;20024;-76
2023/06/07 10:03:47;;;;;;;4.10;3.80;;;;;;;;;;6287729;28;20270;-74
2023/06/07 10:06:49;;;;;;;4.13;3.83;;;;;;;;;;6286932;28;20043;-74
2023/06/07 10:09:51;;;;;;;4.85;4.35;;;;;;;;;;6293559;28;20028;-74
2023/06/07 10:12:52;;;;;;;4.97;4.57;;;;;;;;;;6291439;28;20024;-74
2023/06/07 10:15:54;;;;;;;4.40;4.00;;;;;;;;;;6294230;28;20543;-71
2023/06/07 10:18:56;;;;;;;5.20;4.63;;;;;;;;;;6289319;28;20024;-71
2023/06/07 10:21:57;;;;;;;5.10;4.68;;;;;;;;;;6289457;28;20016;-71
2023/06/07 10:25:08;;;;;;;4.80;4.32;;;;;;;;;;6282909;28;20017;-71
2023/06/07 10:28:09;;;;;;;;;;;;;;;;;;6282224;28;20009;-77
2023/06/07 10:31:11;;;;;;;4.35;4.05;;;;;;;;;;6289297;28;19927;-75
2023/06/07 10:34:11;;;;;;;4.72;4.32;;;;;;;;;;6285052;28;20020;-77
2023/06/07 10:37:16;;;;;;;4.78;4.38;;;;;;;;;;6279740;28;20052;-75
2023/06/07 10:40:16;;;;;;;4.93;4.53;;;;;;;;;;6284720;28;20024;-75
2023/06/07 10:43:17;;;;;;;4.95;4.47;;;;;;;;;;6286263;28;20009;-75
2023/06/07 10:46:21;;;;;;;4.78;4.30;;;;;;;;;;6281160;28;20052;-76
2023/06/07 10:49:47;;;;;;;5.10;4.70;;;;;;;;;;6290715;28;20024;-76
2023/06/07 10:52:55;;;;;;;5.00;4.60;;;;;;;;;;6277741;28;20561;-76
2023/06/07 10:55:55;;;;;;;5.25;4.75;;;;;;;;;;6288098;28;20081;-76
2023/06/07 10:58:56;;;;;;;5.50;5.03;;;;;;;;;;6291089;28;20111;-75
2023/06/07 11:02:15;;;;;;;5.07;4.68;;;;;;;;;;6295077;28;20021;-74
2023/06/07 11:05:16;;;;;;;5.57;5.07;;;;;;;;;;6289201;28;20066;-74
2023/06/07 11:08:30;;;;;;;6.13;5.63;;;;;;;;;;6284575;28;20044;-74
2023/06/07 11:11:39;;;;;;;5.82;5.43;;;;;;;;;;6291966;28;20066;-73
2023/06/07 11:15:00;;;;;;;6.32;5.72;;;;;;;;;;6296576;28;20079;-76
2023/06/07 11:18:01;;;;;;;5.30;4.90;;;;;;;;;;6289607;28;20310;-74
2023/06/07 11:21:01;;;;;;;5.30;4.78;;;;;;;;;;6285970;28;20044;-73
2023/06/07 11:24:14;;;;;;;4.50;4.20;;;;;;;;;;6294997;28;20469;-73
2023/06/07 11:27:18;;;;;;;6.45;5.03;;;;;;;;;;6288232;28;20016;-72
2023/06/07 11:30:18;;;;;;;4.75;4.35;;;;;;;;;;6293649;28;20078;-72
2023/06/07 11:33:21;;;;;;;5.57;5.18;;;;;;;;;;6284677;28;20021;-73
2023/06/07 11:36:21;;;;;;;4.88;4.47;;;;;;;;;;6283093;28;20036;-73
2023/06/07 11:39:31;;;;;;;5.23;4.83;;;;;;;;;;6291131;28;20028;-72
2023/06/07 11:42:32;;;;;;;5.78;5.22;;;;;;;;;;6287490;28;20166;-73
2023/06/07 11:45:33;;;;;;;6.22;5.72;;;;;;;;;;6277985;28;20308;-72
2023/06/07 11:48:33;;;;;;;5.68;5.18;;;;;;;;;;6285693;28;20025;-73
2023/06/07 11:51:34;;;;;;;5.70;5.20;;;;;;;;;;6287046;28;20108;-73
2023/06/07 11:54:41;;;;;;;6.28;5.78;;;;;;;;;;6291392;28;20396;-74
2023/06/07 11:57:43;;;;;;;6.57;6.03;;;;;;;;;;6288361;28;20194;-70
2023/06/07 12:00:44;;;;;;;5.60;5.20;;;;;;;;;;6286355;28;20021;-70
2023/06/07 12:03:44;;;;;;;5.85;5.40;;;;;;;;;;6291051;28;20028;-70
2023/06/07 12:06:46;;;;;;;5.40;4.90;;;;;;;;;;6278650;28;20021;-74
2023/06/07 12:09:48;;;;;;;4.90;4.60;;;;;;;;;;6284204;28;20028;-70
2023/06/07 12:13:02;;;;;;;5.20;4.80;;;;;;;;;;6287589;28;20099;-73
2023/06/07 12:16:04;;;;;;;5.05;4.57;;;;;;;;;;6291215;28;20048;-69
2023/06/07 12:19:05;;;;;;;5.35;4.95;;;;;;;;;;6296631;28;20116;-72
2023/06/07 12:22:06;;;;;;;5.13;4.68;;;;;;;;;;6292095;28;20038;-71
2023/06/07 12:25:16;;;;;;;5.70;5.05;;;;;;;;;;6292199;28;20021;-73
2023/06/07 12:28:20;;;;;;;5.60;5.13;;;;;;;;;;6296235;28;20021;-72
2023/06/07 12:31:22;;;;;;;5.65;5.18;;;;;;;;;;6292520;28;20134;-71
2023/06/07 12:34:26;;;;;;;5.20;4.80;;;;;;;;;;6287420;28;20370;-72
2023/06/07 12:37:27;;;;;;;5.50;5.00;;;;;;;;;;6284458;28;20028;-73
2023/06/07 12:40:27;;;;;;;5.32;4.95;;;;;;;;;;6296702;28;20039;-70
2023/06/07 12:43:27;;;;;;;5.37;4.97;;;;;;;;;;6294092;28;20066;-73
2023/06/07 12:46:28;;;;;;;5.23;4.80;;;;;;;;;;6301830;28;20514;-73
2023/06/07 12:49:28;;;;;;;5.07;4.70;;;;;;;;;;6302281;28;20084;-73
2023/06/07 12:52:28;;;;;;;5.40;5.00;;;;;;;;;;6293002;28;20059;-72
2023/06/07 12:55:29;;;;;;;4.97;4.67;;;;;;;;;;6285528;28;20533;-75
2023/06/07 12:58:29;;;;;;;4.73;4.33;;;;;;;;;;6292832;28;20029;-72
2023/06/07 13:01:29;;;;;;;4.07;3.77;;;;;;;;;;6289801;28;20028;-72
2023/06/07 13:04:30;;;;;;;4.18;3.88;;;;;;;;;;6288471;28;20401;-70
2023/06/07 13:07:30;;;;;;;4.33;3.93;;;;;;;;;;6289382;28;20423;-70
2023/06/07 13:10:30;;;;;;;4.38;4.07;;;;;;;;;;6284598;28;20035;-72
2023/06/07 13:13:31;;;;;;;4.70;4.30;;;;;;;;;;6289750;28;20024;-72
2023/06/07 13:16:34;;;;;;;4.60;4.20;;;;;;;;;;6283461;28;20024;-71
2023/06/07 13:19:35;;;;;;;4.25;3.95;;;;;;;;;;6282415;28;20027;-73
2023/06/07 13:22:35;;;;;;;4.53;4.13;;;;;;;;;;6279532;28;20029;-71
2023/06/07 13:25:35;;;;;;;4.10;3.80;;;;;;;;;;6283769;28;20187;-70
2023/06/07 13:28:36;;;;;;;4.03;3.63;;;;;;;;;;5935935;28;9999858;-68
2023/06/07 13:31:36;;;;;;;3.57;3.27;;;;;;;;;;6279377;28;20116;-69
2023/06/07 13:34:36;;;;;;;3.47;3.20;;;;;;;;;;6281828;28;20055;-71
2023/06/07 13:37:36;;;;;;;3.47;3.17;;;;;;;;;;6290542;28;20028;-71
2023/06/07 13:40:37;;;;;;;3.60;3.30;;;;;;;;;;6291432;28;20361;-70
2023/06/07 13:43:37;;;;;;;3.57;3.30;;;;;;;;;;6283184;28;20090;-70
2023/06/07 13:46:37;;;;;;;4.83;3.40;;;;;;;;;;6287500;28;20031;-69
2023/06/07 13:49:37;;;;;;;3.23;2.97;;;;;;;;;;6283939;28;20675;-72
2023/06/07 13:52:38;;;;;;;3.37;3.17;;;;;;;;;;6291214;28;20013;-71
2023/06/07 13:55:38;;;;;;;3.50;3.20;;;;;;;;;;6291806;28;20016;-71
2023/06/07 13:58:39;;;;;;;3.43;3.23;;;;;;;;;;6290460;28;20274;-71
2023/06/07 14:01:40;;;;;;;3.47;3.25;;;;;;;;;;6287903;28;20047;-70
2023/06/07 14:04:40;;;;;;;4.00;3.70;;;;;;;;;;6281692;28;20025;-70
2023/06/07 14:07:41;;;;;;;3.90;3.50;;;;;;;;;;6289480;28;20024;-70
2023/06/07 14:10:41;;;;;;;3.55;3.25;;;;;;;;;;6288760;28;20024;-71
2023/06/07 14:13:43;;;;;;;3.70;3.40;;;;;;;;;;6274751;28;20159;-70
2023/06/07 14:16:43;;;;;;;3.65;3.35;;;;;;;;;;6278088;28;20028;-70
2023/06/07 14:19:43;;;;;;;3.87;3.37;;;;;;;;;;6288682;28;20496;-72
2023/06/07 14:22:43;;;;;;;4.33;3.90;;;;;;;;;;6276623;28;20650;-72
2023/06/07 14:25:44;;;;;;;4.00;3.70;;;;;;;;;;6282064;28;20028;-73
2023/06/07 14:28:44;;;;;;;4.35;4.05;;;;;;;;;;6280247;28;20023;-69
2023/06/07 14:31:45;;;;;;;3.80;3.55;;;;;;;;;;6275146;28;20021;-68
2023/06/07 14:34:45;;;;;;;3.80;3.50;;;;;;;;;;6270853;28;20059;-69
2023/06/07 14:37:45;;;;;;;3.50;3.20;;;;;;;;;;6279616;28;20016;-69
2023/06/07 14:40:45;;;;;;;3.73;3.30;;;;;;;;;;6269998;28;20021;-67
2023/06/07 14:43:47;;;;;;;4.60;3.40;;;;;;;;;;6276011;28;20310;-70
2023/06/07 14:46:47;;;;;;;3.90;3.50;;;;;;;;;;6273991;28;22788;-67
2023/06/07 14:49:47;;;;;;;3.57;3.23;;;;;;;;;;6269148;28;20028;-67
2023/06/07 14:52:47;;;;;;;3.60;3.40;;;;;;;;;;6277480;28;20497;-66
2023/06/07 14:55:48;;;;;;;3.03;2.83;;;;;;;;;;6275643;28;20017;-68
2023/06/07 14:58:48;;;;;;;4.60;2.73;;;;;;;;;;6276307;28;20028;-68
2023/06/07 15:01:48;;;;;;;2.63;2.43;;;;;;;;;;6271881;28;20077;-66
2023/06/07 15:04:48;;;;;;;3.25;2.53;;;;;;;;;;6276639;28;20025;-66
2023/06/07 15:07:49;;;;;;;2.50;2.30;;;;;;;;;;6265238;28;20012;-66
2023/06/07 15:10:49;;;;;;;1.98;1.77;;;;;;;;;;6272779;28;20037;-67
2023/06/07 15:13:49;;;;;;;1.80;1.70;;;;;;;;;;6261766;28;20021;-67
2023/06/07 15:16:50;;;;;;;1.30;1.20;;;;;;;;;;6265472;28;20017;-67
2023/06/07 15:19:50;;;;;;;1.73;1.60;;;;;;;;;;6266448;28;20123;-68
2023/06/07 15:22:50;;;;;;;1.90;1.80;;;;;;;;;;6286091;28;20005;-68
2023/06/07 15:25:50;;;;;;;1.57;1.47;;;;;;;;;;6279983;28;20033;-66
2023/06/07 15:28:50;;;;;;;1.50;1.40;;;;;;;;;;6263592;28;20720;-69
2023/06/07 15:31:51;;;;;;;2.80;1.30;;;;;;;;;;6263288;28;20423;-67
2023/06/07 15:34:51;;;;;;;1.33;1.23;;;;;;;;;;6257619;28;20032;-68
2023/06/07 15:37:51;;;;;;;1.20;1.10;;;;;;;;;;6251455;28;20785;-68
2023/06/07 15:40:52;;;;;;;1.40;1.30;;;;;;;;;;6252607;28;20287;-69
2023/06/07 15:43:52;;;;;;;1.40;1.30;;;;;;;;;;6255855;28;20037;-67
2023/06/07 15:46:53;;;;;;;2.10;1.42;;;;;;;;;;6260866;28;20513;-68
2023/06/07 15:49:53;;;;;;;1.70;1.43;;;;;;;;;;6260288;28;20123;-67
2023/06/07 15:52:53;;;;;;;1.40;1.30;;;;;;;;;;6263395;28;20178;-68
2023/06/07 15:55:53;;;;;;;1.83;1.60;;;;;;;;;;5909965;28;9999911;-67
2023/06/07 15:58:54;;;;;;;1.98;1.70;;;;;;;;;;6260151;28;20100;-67
2023/06/07 16:01:57;;;;;;;2.03;1.42;;;;;;;;;;6264017;28;20521;-69
2023/06/07 16:04:57;;;;;;;1.50;1.40;;;;;;;;;;6266706;28;20059;-65
2023/06/07 16:07:57;;;;;;;1.50;1.40;;;;;;;;;;6268171;28;20056;-66
2023/06/07 16:10:58;;;;;;;1.53;1.43;;;;;;;;;;6266264;28;20025;-67
2023/06/07 16:13:58;;;;;;;1.48;1.38;;;;;;;;;;6271420;28;20025;-67
2023/06/07 16:16:58;;;;;;;1.70;1.60;;;;;;;;;;6261460;28;20028;-66
2023/06/07 16:19:59;;;;;;;2.30;1.37;;;;;;;;;;6260487;28;20355;-68
2023/06/07 16:23:00;;;;;;;1.77;1.67;;;;;;;;;;6254436;28;20405;-67
2023/06/07 16:26:00;;;;;;;1.58;1.48;;;;;;;;;;6259711;28;20040;-66
2023/06/07 16:29:01;;;;;;;1.70;1.60;;;;;;;;;;6255909;28;20017;-69
2023/06/07 16:32:01;;;;;;;1.80;1.70;;;;;;;;;;6260573;28;20021;-66
2023/06/07 16:35:01;;;;;;;2.08;1.88;;;;;;;;;;6261236;28;20493;-67
2023/06/07 16:38:02;;;;;;;2.00;1.90;;;;;;;;;;6266842;28;20498;-70
2023/06/07 16:41:02;;;;;;;2.00;1.90;;;;;;;;;;6265284;28;20535;-69
2023/06/07 16:44:02;;;;;;;2.20;2.00;;;;;;;;;;6261077;28;20033;-69
2023/06/07 16:47:02;;;;;;;2.35;2.15;;;;;;;;;;6251547;28;20560;-67
2023/06/07 16:50:03;;;;;;;2.47;2.28;;;;;;;;;;6254061;28;20342;-65
2023/06/07 16:53:04;;;;;;;2.58;2.38;;;;;;;;;;6251940;28;20092;-67
2023/06/07 16:56:05;;;;;;;2.63;2.35;;;;;;;;;;6255032;28;20498;-69
2023/06/07 16:59:06;;;;;;;8.32;2.70;;;;;;;;;;6252217;28;20036;-67
2023/06/07 17:02:06;;;;;;;2.90;2.60;;;;;;;;;;6246027;28;20048;-67
2023/06/07 17:05:06;;;;;;;3.13;2.83;;;;;;;;;;6245373;28;20099;-69
2023/06/07 17:08:07;;;;;;;5.07;4.57;;;;;;;;;;6248823;28;20595;-69
2023/06/07 17:11:08;;;;;;;3.95;3.60;;;;;;;;;;6250848;28;20036;-69
2023/06/07 17:14:08;;;;;;;3.45;3.15;;;;;;;;;;6245408;28;20057;-66
2023/06/07 17:17:09;;;;;;;3.07;2.63;;;;;;;;;;6249419;28;20368;-66
2023/06/07 17:20:09;;;;;;;2.63;2.17;;;;;;;;;;6239480;28;20040;-66
2023/06/07 17:23:09;;;;;;;2.80;2.60;;;;;;;;;;6254808;28;20451;-66
2023/06/07 17:26:10;;;;;;;3.40;2.40;;;;;;;;;;6249041;28;20056;-66
2023/06/07 17:29:10;;;;;;;3.00;2.80;;;;;;;;;;6272334;28;20306;-65
2023/06/07 17:32:10;;;;;;;3.30;3.00;;;;;;;;;;6260876;28;20129;-68
2023/06/07 17:35:11;;;;;;;3.03;2.70;;;;;;;;;;6253358;28;20029;-68
2023/06/07 17:38:12;;;;;;;3.40;3.15;;;;;;;;;;6251262;28;20070;-68
2023/06/07 17:41:12;;;;;;;3.30;3.00;;;;;;;;;;6253606;28;20033;-67
2023/06/07 17:44:13;;;;;;;3.28;3.03;;;;;;;;;;6252076;28;20555;-67
2023/06/07 17:47:13;;;;;;;3.00;2.67;;;;;;;;;;6254218;28;20446;-67
2023/06/07 17:50:14;;;;;;;3.07;2.87;;;;;;;;;;6249687;28;20283;-69
2023/06/07 17:53:14;;;;;;;4.03;3.33;;;;;;;;;;6270113;28;20267;-68
2023/06/07 17:56:14;;;;;;;7.17;6.40;;;;;;;;;;6259564;28;20033;-69
2023/06/07 17:59:14;;;;;;;4.50;4.10;;;;;;;;;;6247086;28;20377;-66
2023/06/07 18:02:18;;;;;;;3.77;3.47;;;;;;;;;;6249831;28;20279;-68
2023/06/07 18:05:18;;;;;;;3.47;3.03;;;;;;;;;;6247374;28;20278;-68
2023/06/07 18:08:21;;;;;;;2.72;2.53;;;;;;;;;;6251434;28;20695;-68
2023/06/07 18:11:22;;;;;;;3.15;2.85;;;;;;;;;;6249469;28;20053;-68
2023/06/07 18:14:22;;;;;;;2.88;2.63;;;;;;;;;;6248861;28;20028;-67